»·PEaware :: N3891R KAJO-KVCV

N3891R :: KAJO-KVCV

FLIGHT INFORMATION

Flight Status: Arrived
Operator: Privately registered:
United States
More flights under this callsign
Pilot: Markus B. (22479)
Aircraft: BEECH AIRCRAFT BARON
(BE58)
More flights by this aircraft type
Origin: KAJO Corona Mun
United States
Destination: KVCV Socal Logistics
United States
More flights between these airports :: More routes between these airports
Route: PDZ V442 APLES
File this flight plan on PilotEdge
Remarks: I-11
Altitude:
(Current/Filed)
9,000ft
Speed:
(Current/Filed)
170kts
Departed: 17-Feb-19 11:00 AM
Arrived: 17-Feb-19 11:59 AM
Distance/Time
Traveled:
43nm/0:59
Distance/Time
To Go:
Arrived

Flight Plot

Page will automatically refresh every two minutes.


Map Options




Map Legend


Flown Route
Filed Route
Departure Airport
Arrival Airport
Navaid (VOR, NDB)
Fix

Horizontal Profiles

Position Reports

Time Latitude Longitude Heading Altitude Ground
Speed
17-Feb-19 10:49 33.896890 -117.606155 8 537ft 0kts
17-Feb-19 10:50 33.896890 -117.606155 8 537ft 0kts
17-Feb-19 10:51 33.896890 -117.606155 8 537ft 0kts
17-Feb-19 10:52 33.896890 -117.606155 8 537ft 0kts
17-Feb-19 10:53 33.896890 -117.606155 8 537ft 0kts
17-Feb-19 10:54 33.896890 -117.606155 8 537ft 0kts
17-Feb-19 10:55 33.896893 -117.606155 10 537ft 0kts
17-Feb-19 10:56 33.896893 -117.606155 10 537ft 0kts
17-Feb-19 10:57 33.896893 -117.606155 10 537ft 0kts
17-Feb-19 10:58 33.896898 -117.606153 11 537ft 0kts
17-Feb-19 10:59 33.897198 -117.607094 275 537ft 2kts
17-Feb-19 11:00 33.897684 -117.601567 88 537ft 98kts
17-Feb-19 11:01 33.907839 -117.570068 68 1965ft 115kts
17-Feb-19 11:02 33.917264 -117.529544 76 3127ft 155kts
17-Feb-19 11:03 33.948146 -117.486895 39 3245ft 176kts
17-Feb-19 11:04 33.969418 -117.510094 225 4402ft 151kts
17-Feb-19 11:05 33.930383 -117.519862 214 5518ft 147kts
17-Feb-19 11:06 33.913162 -117.555039 315 6652ft 140kts
17-Feb-19 11:06 33.940499 -117.545692 40 7599ft 137kts
17-Feb-19 11:08 33.969494 -117.507575 94 8818ft 136kts
17-Feb-19 11:09 33.937006 -117.507598 221 8985ft 171kts
17-Feb-19 11:10 33.906013 -117.550605 282 8998ft 175kts
17-Feb-19 11:10 33.938499 -117.547511 40 8982ft 178kts
17-Feb-19 11:11 33.969605 -117.502024 27 8979ft 179kts
17-Feb-19 11:13 34.020993 -117.468186 26 8977ft 180kts
17-Feb-19 11:13 34.058356 -117.445369 26 8977ft 180kts
17-Feb-19 11:14 34.103284 -117.418781 25 8977ft 180kts
17-Feb-19 11:15 34.148213 -117.392918 26 8978ft 180kts
17-Feb-19 11:16 34.192724 -117.364892 27 8977ft 179kts
17-Feb-19 11:17 34.235206 -117.335668 30 8977ft 176kts
17-Feb-19 11:18 34.278548 -117.308418 26 8977ft 175kts
17-Feb-19 11:19 34.322362 -117.282757 26 8977ft 174kts
17-Feb-19 11:20 34.366109 -117.257121 26 8977ft 174kts
17-Feb-19 11:21 34.409878 -117.231458 26 8977ft 174kts
17-Feb-19 11:22 34.453914 -117.206299 25 8977ft 174kts
17-Feb-19 11:23 34.498088 -117.181507 25 8977ft 174kts
17-Feb-19 11:24 34.538952 -117.157089 29 8968ft 131kts
17-Feb-19 11:25 34.572096 -117.142590 6 8538ft 134kts
17-Feb-19 11:26 34.610200 -117.143659 352 7617ft 139kts
17-Feb-19 11:27 34.648034 -117.151135 343 6667ft 137kts
17-Feb-19 11:28 34.679086 -117.163971 333 6629ft 107kts
17-Feb-19 11:29 34.705750 -117.184890 321 6635ft 119kts
17-Feb-19 11:30 34.731619 -117.210509 321 6634ft 120kts
17-Feb-19 11:31 34.755126 -117.239342 312 6634ft 120kts
17-Feb-19 11:32 34.774954 -117.272007 303 6634ft 120kts
17-Feb-19 11:33 34.787588 -117.312243 282 6085ft 133kts
17-Feb-19 11:34 34.786608 -117.353590 211 5164ft 131kts
17-Feb-19 11:35 34.752711 -117.369867 203 4304ft 130kts
17-Feb-19 11:36 34.717846 -117.379045 181 4340ft 132kts
17-Feb-19 11:37 34.682187 -117.381043 183 4297ft 129kts
17-Feb-19 11:38 34.642853 -117.385297 185 3356ft 147kts
17-Feb-19 11:39 34.604557 -117.389530 185 3507ft 128kts
17-Feb-19 11:40 34.586200 -117.413186 306 3999ft 127kts
17-Feb-19 11:41 34.605082 -117.448411 279 4492ft 127kts
17-Feb-19 11:42 34.611055 -117.490691 283 4974ft 127kts
17-Feb-19 11:43 34.619602 -117.534259 283 5762ft 146kts
17-Feb-19 11:44 34.629862 -117.586305 284 6152ft 176kts
17-Feb-19 11:45 34.641674 -117.646017 284 6146ft 183kts
17-Feb-19 11:46 34.653521 -117.705898 283 6146ft 184kts
17-Feb-19 11:47 34.618968 -117.719149 115 5343ft 203kts
17-Feb-19 11:48 34.604098 -117.652718 103 4547ft 201kts
17-Feb-19 11:49 34.595819 -117.604443 101 3548ft 117kts
17-Feb-19 11:50 34.590091 -117.564096 92 3531ft 131kts
17-Feb-19 11:51 34.591365 -117.516712 88 3852ft 142kts
17-Feb-19 11:52 34.586666 -117.466819 98 3841ft 153kts
17-Feb-19 11:53 34.579627 -117.417444 86 3592ft 144kts
17-Feb-19 11:54 34.608971 -117.398677 349 3393ft 136kts
17-Feb-19 11:55 34.647924 -117.408004 348 3386ft 148kts
17-Feb-19 11:56 34.646088 -117.398302 152 3425ft 140kts
17-Feb-19 11:57 34.615015 -117.386703 178 2888ft 84kts
17-Feb-19 11:58 34.610623 -117.384971 93 2888ft 1kts
17-Feb-19 11:59 34.610623 -117.384970 93 2888ft 0kts
17-Feb-19 12:00 34.607985 -117.384056 187 2888ft 34kts
17-Feb-19 12:01 34.599425 -117.384100 179 2888ft 23kts
17-Feb-19 12:02 34.594359 -117.383397 136 2888ft 15kts
17-Feb-19 12:03 34.591336 -117.379630 129 2888ft 17kts
17-Feb-19 12:04 34.587945 -117.375409 169 2888ft 15kts
17-Feb-19 12:05 34.587811 -117.375805 294 2888ft 0kts
17-Feb-19 12:06 34.588021 -117.375701 118 2888ft 3kts
17-Feb-19 12:07 34.587766 -117.375650 320 2888ft 0kts
17-Feb-19 12:08 34.587766 -117.375650 320 2888ft 0kts
17-Feb-19 12:09 34.587766 -117.375650 320 2888ft 0kts
17-Feb-19 12:10 34.587766 -117.375650 320 2888ft 0kts
17-Feb-19 12:11 34.587766 -117.375650 320 2888ft 0kts
17-Feb-19 12:12 34.587766 -117.375650 320 2888ft 0kts

Navigation Log

Ident Type
Flight plan parsing failed, navigation log unavailable